sensor_id;sensor_type;location;lat;lon;timestamp;temperature;humidity
22185;DHT22;11258;52.516;13.318;2023-05-19T00:00:02;11.20;99.90
22185;DHT22;11258;52.516;13.318;2023-05-19T00:02:29;11.30;99.90
22185;DHT22;11258;52.516;13.318;2023-05-19T00:04:59;11.30;99.90
22185;DHT22;11258;52.516;13.318;2023-05-19T00:07:30;11.30;99.90
22185;DHT22;11258;52.516;13.318;2023-05-19T00:09:56;11.40;99.90
22185;DHT22;11258;52.516;13.318;2023-05-19T00:12:22;11.30;99.90
22185;DHT22;11258;52.516;13.318;2023-05-19T00:14:48;11.40;99.90
22185;DHT22;11258;52.516;13.318;2023-05-19T00:17:14;11.30;99.90
22185;DHT22;11258;52.516;13.318;2023-05-19T00:19:41;11.30;99.90
22185;DHT22;11258;52.516;13.318;2023-05-19T00:22:09;11.30;99.90
22185;DHT22;11258;52.516;13.318;2023-05-19T00:24:35;11.30;99.90
22185;DHT22;11258;52.516;13.318;2023-05-19T00:27:01;11.20;99.90
22185;DHT22;11258;52.516;13.318;2023-05-19T00:29:27;11.10;99.90
22185;DHT22;11258;52.516;13.318;2023-05-19T00:31:53;10.90;99.90
22185;DHT22;11258;52.516;13.318;2023-05-19T00:34:19;10.70;99.90
22185;DHT22;11258;52.516;13.318;2023-05-19T00:36:44;10.70;99.90
22185;DHT22;11258;52.516;13.318;2023-05-19T00:39:10;10.70;99.90
22185;DHT22;11258;52.516;13.318;2023-05-19T00:41:35;10.60;99.90
22185;DHT22;11258;52.516;13.318;2023-05-19T00:44:01;10.60;99.90
22185;DHT22;11258;52.516;13.318;2023-05-19T00:46:27;10.60;99.90
22185;DHT22;11258;52.516;13.318;2023-05-19T00:48:54;10.70;99.90
22185;DHT22;11258;52.516;13.318;2023-05-19T00:51:20;10.70;99.90
22185;DHT22;11258;52.516;13.318;2023-05-19T00:53:47;10.60;99.90
22185;DHT22;11258;52.516;13.318;2023-05-19T00:56:15;10.60;99.90
22185;DHT22;11258;52.516;13.318;2023-05-19T00:58:41;10.60;99.90
22185;DHT22;11258;52.516;13.318;2023-05-19T01:01:07;10.60;99.90
22185;DHT22;11258;52.516;13.318;2023-05-19T01:03:34;10.50;99.90
22185;DHT22;11258;52.516;13.318;2023-05-19T01:06:01;10.60;99.90
22185;DHT22;11258;52.516;13.318;2023-05-19T01:08:35;10.60;99.90
22185;DHT22;11258;52.516;13.318;2023-05-19T01:11:02;10.60;99.90
22185;DHT22;11258;52.516;13.318;2023-05-19T01:13:28;10.60;99.90
22185;DHT22;11258;52.516;13.318;2023-05-19T01:22:05;10.50;99.90
22185;DHT22;11258;52.516;13.318;2023-05-19T01:27:46;10.50;99.90
22185;DHT22;11258;52.516;13.318;2023-05-19T01:32:54;10.60;99.90
22185;DHT22;11258;52.516;13.318;2023-05-19T01:35:22;10.40;99.90
22185;DHT22;11258;52.516;13.318;2023-05-19T01:37:51;10.40;99.90
22185;DHT22;11258;52.516;13.318;2023-05-19T01:40:19;10.40;99.90
22185;DHT22;11258;52.516;13.318;2023-05-19T01:42:46;10.40;99.90
22185;DHT22;11258;52.516;13.318;2023-05-19T01:45:13;10.40;99.90
22185;DHT22;11258;52.516;13.318;2023-05-19T01:47:41;10.30;99.90
22185;DHT22;11258;52.516;13.318;2023-05-19T01:50:07;10.40;99.90
22185;DHT22;11258;52.516;13.318;2023-05-19T01:52:33;10.30;99.90
22185;DHT22;11258;52.516;13.318;2023-05-19T01:54:59;10.40;99.90
22185;DHT22;11258;52.516;13.318;2023-05-19T01:57:54;10.30;99.90
22185;DHT22;11258;52.516;13.318;2023-05-19T02:00:48;10.20;99.90
22185;DHT22;11258;52.516;13.318;2023-05-19T02:09:01;10.20;99.90
22185;DHT22;11258;52.516;13.318;2023-05-19T02:17:17;10.20;99.90
22185;DHT22;11258;52.516;13.318;2023-05-19T02:19:44;10.40;99.90
22185;DHT22;11258;52.516;13.318;2023-05-19T02:22:10;10.40;99.90
22185;DHT22;11258;52.516;13.318;2023-05-19T02:24:36;10.40;99.90
22185;DHT22;11258;52.516;13.318;2023-05-19T02:27:02;10.30;99.90
22185;DHT22;11258;52.516;13.318;2023-05-19T02:29:28;10.10;99.90
22185;DHT22;11258;52.516;13.318;2023-05-19T02:31:54;10.10;99.90
22185;DHT22;11258;52.516;13.318;2023-05-19T02:34:19;9.90;99.90
22185;DHT22;11258;52.516;13.318;2023-05-19T02:36:45;9.90;99.90
22185;DHT22;11258;52.516;13.318;2023-05-19T02:39:14;9.80;99.90
22185;DHT22;11258;52.516;13.318;2023-05-19T02:41:40;9.80;99.90
22185;DHT22;11258;52.516;13.318;2023-05-19T02:44:05;9.70;99.90
22185;DHT22;11258;52.516;13.318;2023-05-19T02:46:32;9.70;99.90
22185;DHT22;11258;52.516;13.318;2023-05-19T02:48:57;9.70;99.90
22185;DHT22;11258;52.516;13.318;2023-05-19T02:51:23;9.70;99.90
22185;DHT22;11258;52.516;13.318;2023-05-19T02:53:49;9.70;99.90
22185;DHT22;11258;52.516;13.318;2023-05-19T02:56:15;9.70;99.90
22185;DHT22;11258;52.516;13.318;2023-05-19T02:58:40;9.80;99.90
22185;DHT22;11258;52.516;13.318;2023-05-19T03:01:07;9.80;99.90
22185;DHT22;11258;52.516;13.318;2023-05-19T03:03:33;9.80;99.90
22185;DHT22;11258;52.516;13.318;2023-05-19T03:05:59;9.90;99.90
22185;DHT22;11258;52.516;13.318;2023-05-19T03:08:26;10.00;99.90
22185;DHT22;11258;52.516;13.318;2023-05-19T03:10:52;10.00;99.90
22185;DHT22;11258;52.516;13.318;2023-05-19T03:13:17;9.90;99.90
22185;DHT22;11258;52.516;13.318;2023-05-19T03:15:43;9.90;99.90
22185;DHT22;11258;52.516;13.318;2023-05-19T03:18:09;10.00;99.90
22185;DHT22;11258;52.516;13.318;2023-05-19T03:20:36;9.90;99.90
22185;DHT22;11258;52.516;13.318;2023-05-19T03:23:02;9.90;99.90
22185;DHT22;11258;52.516;13.318;2023-05-19T03:25:28;10.00;99.90
22185;DHT22;11258;52.516;13.318;2023-05-19T03:27:54;10.00;99.90
22185;DHT22;11258;52.516;13.318;2023-05-19T03:30:20;9.90;99.90
22185;DHT22;11258;52.516;13.318;2023-05-19T03:32:45;9.90;99.90
22185;DHT22;11258;52.516;13.318;2023-05-19T03:35:11;9.90;99.90
22185;DHT22;11258;52.516;13.318;2023-05-19T03:37:37;10.00;99.90
22185;DHT22;11258;52.516;13.318;2023-05-19T03:40:02;10.00;99.90
22185;DHT22;11258;52.516;13.318;2023-05-19T03:42:30;10.10;99.90
22185;DHT22;11258;52.516;13.318;2023-05-19T03:44:55;10.20;99.90
22185;DHT22;11258;52.516;13.318;2023-05-19T03:47:21;10.20;99.90
22185;DHT22;11258;52.516;13.318;2023-05-19T03:49:47;10.40;99.90
22185;DHT22;11258;52.516;13.318;2023-05-19T03:52:12;10.40;99.90
22185;DHT22;11258;52.516;13.318;2023-05-19T03:54:38;10.40;99.90
22185;DHT22;11258;52.516;13.318;2023-05-19T03:57:04;10.60;99.90
22185;DHT22;11258;52.516;13.318;2023-05-19T03:59:30;10.60;99.90
22185;DHT22;11258;52.516;13.318;2023-05-19T04:01:56;10.70;99.90
22185;DHT22;11258;52.516;13.318;2023-05-19T04:04:22;11.00;99.90
22185;DHT22;11258;52.516;13.318;2023-05-19T04:06:48;11.40;99.90
22185;DHT22;11258;52.516;13.318;2023-05-19T04:09:14;11.60;99.90
22185;DHT22;11258;52.516;13.318;2023-05-19T04:11:41;11.90;99.90
22185;DHT22;11258;52.516;13.318;2023-05-19T04:14:07;12.10;99.90
22185;DHT22;11258;52.516;13.318;2023-05-19T04:16:33;12.30;99.90
22185;DHT22;11258;52.516;13.318;2023-05-19T04:18:59;12.60;99.90
22185;DHT22;11258;52.516;13.318;2023-05-19T04:21:25;12.90;99.90
22185;DHT22;11258;52.516;13.318;2023-05-19T04:23:50;13.00;99.90
22185;DHT22;11258;52.516;13.318;2023-05-19T04:26:17;13.20;99.90
22185;DHT22;11258;52.516;13.318;2023-05-19T04:28:43;13.20;99.90
22185;DHT22;11258;52.516;13.318;2023-05-19T04:31:12;13.20;99.90
22185;DHT22;11258;52.516;13.318;2023-05-19T04:33:39;13.20;99.90
22185;DHT22;11258;52.516;13.318;2023-05-19T04:36:08;12.90;99.90
22185;DHT22;11258;52.516;13.318;2023-05-19T04:38:38;12.90;99.90
22185;DHT22;11258;52.516;13.318;2023-05-19T04:41:07;13.10;99.90
22185;DHT22;11258;52.516;13.318;2023-05-19T04:43:35;13.30;99.90
22185;DHT22;11258;52.516;13.318;2023-05-19T04:46:02;13.60;99.90
22185;DHT22;11258;52.516;13.318;2023-05-19T04:48:30;13.60;99.90
22185;DHT22;11258;52.516;13.318;2023-05-19T04:50:57;13.80;99.90
22185;DHT22;11258;52.516;13.318;2023-05-19T04:53:28;13.60;99.90
22185;DHT22;11258;52.516;13.318;2023-05-19T04:55:55;13.90;99.90
22185;DHT22;11258;52.516;13.318;2023-05-19T04:58:23;14.10;99.90
22185;DHT22;11258;52.516;13.318;2023-05-19T05:00:52;14.60;99.90
22185;DHT22;11258;52.516;13.318;2023-05-19T05:03:20;14.70;99.90
22185;DHT22;11258;52.516;13.318;2023-05-19T05:05:47;14.70;99.90
22185;DHT22;11258;52.516;13.318;2023-05-19T05:08:13;14.70;99.90
22185;DHT22;11258;52.516;13.318;2023-05-19T05:10:40;14.60;99.90
22185;DHT22;11258;52.516;13.318;2023-05-19T05:13:06;14.40;99.90
22185;DHT22;11258;52.516;13.318;2023-05-19T05:15:32;14.40;99.90
22185;DHT22;11258;52.516;13.318;2023-05-19T05:18:00;14.70;99.90
22185;DHT22;11258;52.516;13.318;2023-05-19T05:20:26;14.60;99.90
22185;DHT22;11258;52.516;13.318;2023-05-19T05:22:52;14.60;99.90
22185;DHT22;11258;52.516;13.318;2023-05-19T05:25:18;14.40;99.90
22185;DHT22;11258;52.516;13.318;2023-05-19T05:27:44;14.60;99.90
22185;DHT22;11258;52.516;13.318;2023-05-19T05:30:10;14.80;99.90
22185;DHT22;11258;52.516;13.318;2023-05-19T05:32:36;15.00;99.90
22185;DHT22;11258;52.516;13.318;2023-05-19T05:35:01;15.40;99.90
22185;DHT22;11258;52.516;13.318;2023-05-19T05:37:27;15.70;99.90
22185;DHT22;11258;52.516;13.318;2023-05-19T05:39:53;15.40;99.90
22185;DHT22;11258;52.516;13.318;2023-05-19T05:42:18;14.80;99.90
22185;DHT22;11258;52.516;13.318;2023-05-19T05:44:44;14.30;99.90
22185;DHT22;11258;52.516;13.318;2023-05-19T05:47:10;14.20;99.90
22185;DHT22;11258;52.516;13.318;2023-05-19T05:49:36;14.00;99.90
22185;DHT22;11258;52.516;13.318;2023-05-19T05:52:04;14.00;99.90
22185;DHT22;11258;52.516;13.318;2023-05-19T05:54:30;14.00;99.90
22185;DHT22;11258;52.516;13.318;2023-05-19T05:56:56;14.10;99.90
22185;DHT22;11258;52.516;13.318;2023-05-19T05:59:21;14.60;99.90
22185;DHT22;11258;52.516;13.318;2023-05-19T06:01:47;15.10;99.90
22185;DHT22;11258;52.516;13.318;2023-05-19T06:04:13;15.60;99.90
22185;DHT22;11258;52.516;13.318;2023-05-19T06:06:38;16.20;99.90
22185;DHT22;11258;52.516;13.318;2023-05-19T06:09:04;16.10;99.90
22185;DHT22;11258;52.516;13.318;2023-05-19T06:11:30;15.60;99.90
22185;DHT22;11258;52.516;13.318;2023-05-19T06:13:56;15.50;99.90
22185;DHT22;11258;52.516;13.318;2023-05-19T06:16:21;15.30;99.90
22185;DHT22;11258;52.516;13.318;2023-05-19T06:18:47;15.10;99.90
22185;DHT22;11258;52.516;13.318;2023-05-19T06:21:13;15.00;99.90
22185;DHT22;11258;52.516;13.318;2023-05-19T06:23:39;15.00;99.90
22185;DHT22;11258;52.516;13.318;2023-05-19T06:26:05;16.00;99.90
22185;DHT22;11258;52.516;13.318;2023-05-19T06:28:31;16.70;99.90
22185;DHT22;11258;52.516;13.318;2023-05-19T06:30:57;17.00;99.90
22185;DHT22;11258;52.516;13.318;2023-05-19T06:33:24;17.80;99.90
22185;DHT22;11258;52.516;13.318;2023-05-19T06:35:50;19.00;99.90
22185;DHT22;11258;52.516;13.318;2023-05-19T06:38:16;19.60;99.90
22185;DHT22;11258;52.516;13.318;2023-05-19T06:40:41;19.70;99.90
22185;DHT22;11258;52.516;13.318;2023-05-19T06:43:07;20.00;99.90
22185;DHT22;11258;52.516;13.318;2023-05-19T06:45:33;19.70;99.90
22185;DHT22;11258;52.516;13.318;2023-05-19T06:47:59;19.70;99.90
22185;DHT22;11258;52.516;13.318;2023-05-19T06:50:24;20.60;99.90
22185;DHT22;11258;52.516;13.318;2023-05-19T06:52:50;20.70;99.90
22185;DHT22;11258;52.516;13.318;2023-05-19T06:55:16;21.40;99.90
22185;DHT22;11258;52.516;13.318;2023-05-19T06:57:42;21.90;99.90
22185;DHT22;11258;52.516;13.318;2023-05-19T07:00:08;21.60;99.90
22185;DHT22;11258;52.516;13.318;2023-05-19T07:02:36;21.40;99.90
22185;DHT22;11258;52.516;13.318;2023-05-19T07:05:02;21.20;99.90
22185;DHT22;11258;52.516;13.318;2023-05-19T07:07:28;21.60;99.90
22185;DHT22;11258;52.516;13.318;2023-05-19T07:09:54;21.30;99.90
22185;DHT22;11258;52.516;13.318;2023-05-19T07:12:19;21.90;99.90
22185;DHT22;11258;52.516;13.318;2023-05-19T07:14:45;21.90;99.90
22185;DHT22;11258;52.516;13.318;2023-05-19T07:17:10;21.90;99.90
22185;DHT22;11258;52.516;13.318;2023-05-19T07:19:37;22.80;99.90
22185;DHT22;11258;52.516;13.318;2023-05-19T07:22:02;24.00;99.90
22185;DHT22;11258;52.516;13.318;2023-05-19T07:24:28;23.00;99.90
22185;DHT22;11258;52.516;13.318;2023-05-19T07:26:55;22.30;99.90
22185;DHT22;11258;52.516;13.318;2023-05-19T07:29:21;22.50;99.90
22185;DHT22;11258;52.516;13.318;2023-05-19T07:31:46;22.70;99.90
22185;DHT22;11258;52.516;13.318;2023-05-19T07:34:12;23.60;99.90
22185;DHT22;11258;52.516;13.318;2023-05-19T07:36:37;22.90;99.90
22185;DHT22;11258;52.516;13.318;2023-05-19T07:39:03;22.60;99.90
22185;DHT22;11258;52.516;13.318;2023-05-19T07:41:29;22.10;99.90
22185;DHT22;11258;52.516;13.318;2023-05-19T07:43:55;22.90;99.90
22185;DHT22;11258;52.516;13.318;2023-05-19T07:46:20;22.50;99.90
22185;DHT22;11258;52.516;13.318;2023-05-19T07:48:46;21.90;99.90
22185;DHT22;11258;52.516;13.318;2023-05-19T07:51:12;21.30;99.90
22185;DHT22;11258;52.516;13.318;2023-05-19T07:53:38;20.80;99.90
22185;DHT22;11258;52.516;13.318;2023-05-19T07:56:04;20.40;99.90
22185;DHT22;11258;52.516;13.318;2023-05-19T07:58:29;20.10;99.90
22185;DHT22;11258;52.516;13.318;2023-05-19T08:00:59;20.20;99.90
22185;DHT22;11258;52.516;13.318;2023-05-19T08:03:25;20.90;99.90
22185;DHT22;11258;52.516;13.318;2023-05-19T08:05:51;21.50;99.90
22185;DHT22;11258;52.516;13.318;2023-05-19T08:08:17;21.20;99.90
22185;DHT22;11258;52.516;13.318;2023-05-19T08:10:44;20.60;99.90
22185;DHT22;11258;52.516;13.318;2023-05-19T08:13:10;19.90;99.90
22185;DHT22;11258;52.516;13.318;2023-05-19T08:15:35;19.70;99.90
22185;DHT22;11258;52.516;13.318;2023-05-19T08:18:01;19.80;99.90
22185;DHT22;11258;52.516;13.318;2023-05-19T08:20:27;19.30;99.90
22185;DHT22;11258;52.516;13.318;2023-05-19T08:22:53;19.70;99.90
22185;DHT22;11258;52.516;13.318;2023-05-19T08:25:18;20.30;99.90
22185;DHT22;11258;52.516;13.318;2023-05-19T08:27:44;20.50;99.90
22185;DHT22;11258;52.516;13.318;2023-05-19T08:30:11;20.80;99.90
22185;DHT22;11258;52.516;13.318;2023-05-19T08:32:36;21.20;99.90
22185;DHT22;11258;52.516;13.318;2023-05-19T08:35:02;21.40;99.90
22185;DHT22;11258;52.516;13.318;2023-05-19T08:37:28;21.00;99.90
22185;DHT22;11258;52.516;13.318;2023-05-19T08:39:54;20.70;99.90
22185;DHT22;11258;52.516;13.318;2023-05-19T08:42:19;20.30;99.90
22185;DHT22;11258;52.516;13.318;2023-05-19T08:44:45;19.90;99.90
22185;DHT22;11258;52.516;13.318;2023-05-19T08:47:11;20.00;99.90
22185;DHT22;11258;52.516;13.318;2023-05-19T08:49:45;19.70;99.90
22185;DHT22;11258;52.516;13.318;2023-05-19T08:55:10;19.70;99.90
22185;DHT22;11258;52.516;13.318;2023-05-19T08:57:37;19.90;99.90
22185;DHT22;11258;52.516;13.318;2023-05-19T09:00:04;19.70;99.90
22185;DHT22;11258;52.516;13.318;2023-05-19T09:02:39;19.30;99.90
22185;DHT22;11258;52.516;13.318;2023-05-19T09:05:06;19.00;99.90
22185;DHT22;11258;52.516;13.318;2023-05-19T09:07:32;19.20;99.90
22185;DHT22;11258;52.516;13.318;2023-05-19T09:10:00;19.00;99.90
22185;DHT22;11258;52.516;13.318;2023-05-19T09:12:26;19.20;99.90
22185;DHT22;11258;52.516;13.318;2023-05-19T09:14:52;19.20;99.90
22185;DHT22;11258;52.516;13.318;2023-05-19T09:17:18;19.20;99.90
22185;DHT22;11258;52.516;13.318;2023-05-19T09:19:44;19.20;99.90
22185;DHT22;11258;52.516;13.318;2023-05-19T09:22:14;19.10;99.90
22185;DHT22;11258;52.516;13.318;2023-05-19T09:24:40;18.60;99.90
22185;DHT22;11258;52.516;13.318;2023-05-19T09:27:06;18.30;99.90
22185;DHT22;11258;52.516;13.318;2023-05-19T09:29:32;18.70;99.90
22185;DHT22;11258;52.516;13.318;2023-05-19T09:31:58;19.00;99.90
22185;DHT22;11258;52.516;13.318;2023-05-19T09:34:29;19.30;99.90
22185;DHT22;11258;52.516;13.318;2023-05-19T09:36:55;19.20;99.90
22185;DHT22;11258;52.516;13.318;2023-05-19T09:39:22;19.20;99.90
22185;DHT22;11258;52.516;13.318;2023-05-19T09:41:53;19.20;99.90
22185;DHT22;11258;52.516;13.318;2023-05-19T09:46:52;18.90;99.90
22185;DHT22;11258;52.516;13.318;2023-05-19T09:49:26;19.00;99.90
22185;DHT22;11258;52.516;13.318;2023-05-19T09:51:55;19.00;99.90
22185;DHT22;11258;52.516;13.318;2023-05-19T09:54:22;18.80;99.90
22185;DHT22;11258;52.516;13.318;2023-05-19T09:57:06;18.80;99.90
22185;DHT22;11258;52.516;13.318;2023-05-19T09:59:32;19.30;99.90
22185;DHT22;11258;52.516;13.318;2023-05-19T10:02:00;19.60;99.90
22185;DHT22;11258;52.516;13.318;2023-05-19T10:04:27;19.70;99.90
22185;DHT22;11258;52.516;13.318;2023-05-19T10:06:55;19.60;99.90
22185;DHT22;11258;52.516;13.318;2023-05-19T10:09:25;19.90;99.90
22185;DHT22;11258;52.516;13.318;2023-05-19T10:11:52;20.10;99.90
22185;DHT22;11258;52.516;13.318;2023-05-19T10:14:28;20.50;99.90
22185;DHT22;11258;52.516;13.318;2023-05-19T10:16:56;20.10;99.90
22185;DHT22;11258;52.516;13.318;2023-05-19T10:19:24;19.90;99.90
22185;DHT22;11258;52.516;13.318;2023-05-19T10:21:50;20.00;99.90
22185;DHT22;11258;52.516;13.318;2023-05-19T10:24:17;19.90;99.90
22185;DHT22;11258;52.516;13.318;2023-05-19T10:27:04;20.00;99.90
22185;DHT22;11258;52.516;13.318;2023-05-19T10:29:35;19.60;99.90
22185;DHT22;11258;52.516;13.318;2023-05-19T10:32:07;19.80;99.90
22185;DHT22;11258;52.516;13.318;2023-05-19T10:38:14;20.00;99.90
22185;DHT22;11258;52.516;13.318;2023-05-19T10:40:40;20.30;99.90
22185;DHT22;11258;52.516;13.318;2023-05-19T10:46:04;19.90;99.90
22185;DHT22;11258;52.516;13.318;2023-05-19T10:48:34;20.30;99.90
22185;DHT22;11258;52.516;13.318;2023-05-19T10:51:00;20.30;99.90
22185;DHT22;11258;52.516;13.318;2023-05-19T10:53:32;19.90;99.90
22185;DHT22;11258;52.516;13.318;2023-05-19T10:56:01;19.70;99.90
22185;DHT22;11258;52.516;13.318;2023-05-19T10:58:49;19.80;99.90
22185;DHT22;11258;52.516;13.318;2023-05-19T11:01:17;19.50;99.90
22185;DHT22;11258;52.516;13.318;2023-05-19T11:03:49;19.50;99.90
22185;DHT22;11258;52.516;13.318;2023-05-19T11:06:29;19.20;99.90
22185;DHT22;11258;52.516;13.318;2023-05-19T11:08:58;19.30;99.90
22185;DHT22;11258;52.516;13.318;2023-05-19T11:11:53;19.30;99.90
22185;DHT22;11258;52.516;13.318;2023-05-19T11:14:27;19.40;99.90
22185;DHT22;11258;52.516;13.318;2023-05-19T11:16:57;19.10;99.90
22185;DHT22;11258;52.516;13.318;2023-05-19T11:19:34;18.80;99.90
22185;DHT22;11258;52.516;13.318;2023-05-19T11:22:12;19.20;99.90
22185;DHT22;11258;52.516;13.318;2023-05-19T11:29:53;19.20;99.90
22185;DHT22;11258;52.516;13.318;2023-05-19T11:32:21;19.20;99.90
22185;DHT22;11258;52.516;13.318;2023-05-19T11:34:48;19.00;99.90
22185;DHT22;11258;52.516;13.318;2023-05-19T11:37:14;18.80;99.90
22185;DHT22;11258;52.516;13.318;2023-05-19T11:39:40;18.80;99.90
22185;DHT22;11258;52.516;13.318;2023-05-19T11:42:09;19.00;99.90
22185;DHT22;11258;52.516;13.318;2023-05-19T11:44:35;19.20;99.90
22185;DHT22;11258;52.516;13.318;2023-05-19T11:47:03;19.20;99.90
22185;DHT22;11258;52.516;13.318;2023-05-19T11:49:29;19.30;99.90
22185;DHT22;11258;52.516;13.318;2023-05-19T11:51:54;19.40;99.90
22185;DHT22;11258;52.516;13.318;2023-05-19T11:54:20;19.60;99.90
22185;DHT22;11258;52.516;13.318;2023-05-19T11:56:46;19.10;99.90
22185;DHT22;11258;52.516;13.318;2023-05-19T11:59:12;19.20;99.90
22185;DHT22;11258;52.516;13.318;2023-05-19T12:01:38;19.10;99.90
22185;DHT22;11258;52.516;13.318;2023-05-19T12:04:09;18.90;99.90
22185;DHT22;11258;52.516;13.318;2023-05-19T12:06:35;18.80;99.90
22185;DHT22;11258;52.516;13.318;2023-05-19T12:09:03;18.80;99.90
22185;DHT22;11258;52.516;13.318;2023-05-19T12:11:29;18.80;99.90
22185;DHT22;11258;52.516;13.318;2023-05-19T12:14:00;18.80;99.90
22185;DHT22;11258;52.516;13.318;2023-05-19T12:16:33;18.80;99.90
22185;DHT22;11258;52.516;13.318;2023-05-19T12:18:59;19.00;99.90
22185;DHT22;11258;52.516;13.318;2023-05-19T12:21:25;19.10;99.90
22185;DHT22;11258;52.516;13.318;2023-05-19T12:23:51;18.80;99.90
22185;DHT22;11258;52.516;13.318;2023-05-19T12:26:17;18.90;99.90
22185;DHT22;11258;52.516;13.318;2023-05-19T12:28:44;18.90;99.90
22185;DHT22;11258;52.516;13.318;2023-05-19T12:31:10;19.00;99.90
22185;DHT22;11258;52.516;13.318;2023-05-19T12:33:36;19.00;99.90
22185;DHT22;11258;52.516;13.318;2023-05-19T12:36:02;19.10;99.90
22185;DHT22;11258;52.516;13.318;2023-05-19T12:38:27;19.10;99.90
22185;DHT22;11258;52.516;13.318;2023-05-19T12:43:23;18.80;99.90
22185;DHT22;11258;52.516;13.318;2023-05-19T12:45:48;18.90;99.90
22185;DHT22;11258;52.516;13.318;2023-05-19T12:48:14;19.00;99.90
22185;DHT22;11258;52.516;13.318;2023-05-19T12:50:41;19.00;99.90
22185;DHT22;11258;52.516;13.318;2023-05-19T12:53:10;19.10;99.90
22185;DHT22;11258;52.516;13.318;2023-05-19T12:55:41;19.00;99.90
22185;DHT22;11258;52.516;13.318;2023-05-19T12:58:07;18.90;99.90
22185;DHT22;11258;52.516;13.318;2023-05-19T13:00:48;18.90;99.90
22185;DHT22;11258;52.516;13.318;2023-05-19T13:03:16;19.10;99.90
22185;DHT22;11258;52.516;13.318;2023-05-19T13:05:44;19.20;99.90
22185;DHT22;11258;52.516;13.318;2023-05-19T13:08:16;19.10;99.90
22185;DHT22;11258;52.516;13.318;2023-05-19T13:10:44;19.30;99.90
22185;DHT22;11258;52.516;13.318;2023-05-19T13:13:11;19.30;99.90
22185;DHT22;11258;52.516;13.318;2023-05-19T13:15:42;19.40;99.90
22185;DHT22;11258;52.516;13.318;2023-05-19T13:18:11;19.30;99.90
22185;DHT22;11258;52.516;13.318;2023-05-19T13:20:37;19.20;99.90
22185;DHT22;11258;52.516;13.318;2023-05-19T13:23:04;19.30;99.90
22185;DHT22;11258;52.516;13.318;2023-05-19T13:25:31;19.20;99.90
22185;DHT22;11258;52.516;13.318;2023-05-19T13:27:58;19.20;99.90
22185;DHT22;11258;52.516;13.318;2023-05-19T13:30:26;19.10;99.90
22185;DHT22;11258;52.516;13.318;2023-05-19T13:32:52;19.20;99.90
22185;DHT22;11258;52.516;13.318;2023-05-19T13:35:18;19.30;99.90
22185;DHT22;11258;52.516;13.318;2023-05-19T13:37:44;19.30;99.90
22185;DHT22;11258;52.516;13.318;2023-05-19T13:40:11;19.20;99.90
22185;DHT22;11258;52.516;13.318;2023-05-19T13:42:36;18.90;99.90
22185;DHT22;11258;52.516;13.318;2023-05-19T13:45:03;18.80;99.90
22185;DHT22;11258;52.516;13.318;2023-05-19T13:47:29;18.80;99.90
22185;DHT22;11258;52.516;13.318;2023-05-19T13:49:55;18.90;99.90
22185;DHT22;11258;52.516;13.318;2023-05-19T13:52:21;19.00;99.90
22185;DHT22;11258;52.516;13.318;2023-05-19T13:54:47;18.90;99.90
22185;DHT22;11258;52.516;13.318;2023-05-19T13:57:14;18.80;99.90
22185;DHT22;11258;52.516;13.318;2023-05-19T13:59:39;18.90;99.90
22185;DHT22;11258;52.516;13.318;2023-05-19T14:02:07;18.70;99.90
22185;DHT22;11258;52.516;13.318;2023-05-19T14:04:35;18.50;99.90
22185;DHT22;11258;52.516;13.318;2023-05-19T14:07:02;18.50;99.90
22185;DHT22;11258;52.516;13.318;2023-05-19T14:09:28;18.40;99.90
22185;DHT22;11258;52.516;13.318;2023-05-19T14:11:53;18.40;99.90
22185;DHT22;11258;52.516;13.318;2023-05-19T14:14:19;18.40;99.90
22185;DHT22;11258;52.516;13.318;2023-05-19T14:16:44;18.50;99.90
22185;DHT22;11258;52.516;13.318;2023-05-19T14:19:10;18.70;99.90
22185;DHT22;11258;52.516;13.318;2023-05-19T14:21:36;18.80;99.90
22185;DHT22;11258;52.516;13.318;2023-05-19T14:24:02;18.80;99.90
22185;DHT22;11258;52.516;13.318;2023-05-19T14:26:28;18.90;99.90
22185;DHT22;11258;52.516;13.318;2023-05-19T14:28:53;18.90;99.90
22185;DHT22;11258;52.516;13.318;2023-05-19T14:31:21;18.90;99.90
22185;DHT22;11258;52.516;13.318;2023-05-19T14:33:47;18.90;99.90
22185;DHT22;11258;52.516;13.318;2023-05-19T14:36:12;18.90;99.90
22185;DHT22;11258;52.516;13.318;2023-05-19T14:38:38;18.90;99.90
22185;DHT22;11258;52.516;13.318;2023-05-19T14:41:05;18.90;99.90
22185;DHT22;11258;52.516;13.318;2023-05-19T14:43:31;18.90;99.90
22185;DHT22;11258;52.516;13.318;2023-05-19T14:45:57;18.80;99.90
22185;DHT22;11258;52.516;13.318;2023-05-19T14:48:23;18.70;99.90
22185;DHT22;11258;52.516;13.318;2023-05-19T14:50:48;18.60;99.90
22185;DHT22;11258;52.516;13.318;2023-05-19T14:53:14;18.70;99.90
22185;DHT22;11258;52.516;13.318;2023-05-19T14:55:41;18.60;99.90
22185;DHT22;11258;52.516;13.318;2023-05-19T14:58:07;18.70;99.90
22185;DHT22;11258;52.516;13.318;2023-05-19T15:00:33;18.70;99.90
22185;DHT22;11258;52.516;13.318;2023-05-19T15:02:58;18.80;99.90
22185;DHT22;11258;52.516;13.318;2023-05-19T15:05:24;18.70;99.90
22185;DHT22;11258;52.516;13.318;2023-05-19T15:07:50;18.60;99.90
22185;DHT22;11258;52.516;13.318;2023-05-19T15:10:16;18.40;99.90
22185;DHT22;11258;52.516;13.318;2023-05-19T15:12:44;18.40;99.90
22185;DHT22;11258;52.516;13.318;2023-05-19T15:15:11;18.50;99.90
22185;DHT22;11258;52.516;13.318;2023-05-19T15:17:37;18.50;99.90
22185;DHT22;11258;52.516;13.318;2023-05-19T15:20:03;18.40;99.90
22185;DHT22;11258;52.516;13.318;2023-05-19T15:22:28;18.40;99.90
22185;DHT22;11258;52.516;13.318;2023-05-19T15:24:54;18.50;99.90
22185;DHT22;11258;52.516;13.318;2023-05-19T15:27:20;18.40;99.90
22185;DHT22;11258;52.516;13.318;2023-05-19T15:29:45;18.30;99.90
22185;DHT22;11258;52.516;13.318;2023-05-19T15:32:11;18.30;99.90
22185;DHT22;11258;52.516;13.318;2023-05-19T15:34:37;18.10;99.90
22185;DHT22;11258;52.516;13.318;2023-05-19T15:37:02;18.10;99.90
22185;DHT22;11258;52.516;13.318;2023-05-19T15:39:31;18.10;99.90
22185;DHT22;11258;52.516;13.318;2023-05-19T15:41:58;18.00;99.90
22185;DHT22;11258;52.516;13.318;2023-05-19T15:44:24;18.00;99.90
22185;DHT22;11258;52.516;13.318;2023-05-19T15:46:50;17.90;99.90
22185;DHT22;11258;52.516;13.318;2023-05-19T15:49:15;17.90;99.90
22185;DHT22;11258;52.516;13.318;2023-05-19T15:51:42;17.90;99.90
22185;DHT22;11258;52.516;13.318;2023-05-19T15:54:08;18.10;99.90
22185;DHT22;11258;52.516;13.318;2023-05-19T15:56:34;18.10;99.90
22185;DHT22;11258;52.516;13.318;2023-05-19T15:59:00;18.10;99.90